createdAt,value
2023-04-01T00:00:10.694Z,13.10
2023-04-01T00:02:41.605Z,13.10
2023-04-01T00:05:12.397Z,13.10
2023-04-01T00:07:42.585Z,13.10
2023-04-01T00:10:13.114Z,13.10
2023-04-01T00:12:42.955Z,13.10
2023-04-01T00:15:14.247Z,13.10
2023-04-01T00:17:43.543Z,13.10
2023-04-01T00:20:15.203Z,13.10
2023-04-01T00:22:44.162Z,13.10
2023-04-01T00:25:13.776Z,13.00
2023-04-01T00:27:42.826Z,13.00
2023-04-01T00:30:13.836Z,13.00
2023-04-01T00:32:43.029Z,13.00
2023-04-01T00:35:13.444Z,13.00
2023-04-01T00:37:42.405Z,13.00
2023-04-01T00:40:26.070Z,13.00
2023-04-01T00:42:55.396Z,13.00
2023-04-01T00:45:36.796Z,12.90
2023-04-01T00:48:10.999Z,12.90
2023-04-01T00:50:42.800Z,13.00
2023-04-01T00:53:12.896Z,12.90
2023-04-01T00:55:47.960Z,12.90
2023-04-01T00:58:20.681Z,12.90
2023-04-01T01:00:52.417Z,12.90
2023-04-01T01:03:21.636Z,12.90
2023-04-01T01:06:11.659Z,12.90
2023-04-01T01:09:05.178Z,12.90
2023-04-01T01:11:43.630Z,12.90
2023-04-01T01:14:29.405Z,12.90
2023-04-01T01:17:04.446Z,12.90
2023-04-01T01:19:57.758Z,12.80
2023-04-01T01:22:41.447Z,12.80
2023-04-01T01:25:28.486Z,12.80
2023-04-01T01:28:08.215Z,12.80
2023-04-01T01:30:45.983Z,12.80
2023-04-01T01:33:36.240Z,12.80
2023-04-01T01:36:11.323Z,12.80
2023-04-01T01:38:41.013Z,12.80
2023-04-01T01:41:11.502Z,12.80
2023-04-01T01:43:45.066Z,12.80
2023-04-01T01:46:21.543Z,12.80
2023-04-01T01:48:52.506Z,12.80
2023-04-01T01:51:24.395Z,12.80
2023-04-01T01:53:53.742Z,12.80
2023-04-01T01:56:27.610Z,12.80
2023-04-01T01:59:02.394Z,12.80
2023-04-01T02:01:35.012Z,12.80
2023-04-01T02:04:12.376Z,12.80
2023-04-01T02:06:50.003Z,12.90
2023-04-01T02:09:18.926Z,12.90
2023-04-01T02:11:51.608Z,12.90
2023-04-01T02:14:23.094Z,12.90
2023-04-01T02:16:56.458Z,12.90
2023-04-01T02:19:29.849Z,12.90
2023-04-01T02:22:05.286Z,12.90
2023-04-01T02:24:37.274Z,12.90
2023-04-01T02:27:06.921Z,12.90
2023-04-01T02:29:36.435Z,12.90
2023-04-01T02:32:11.143Z,12.90
2023-04-01T02:34:40.628Z,12.90
2023-04-01T02:37:11.151Z,12.90
2023-04-01T02:39:40.332Z,12.80
2023-04-01T02:42:10.043Z,12.90
2023-04-01T02:44:39.027Z,12.90
2023-04-01T02:47:08.266Z,12.90
2023-04-01T02:49:37.338Z,12.90
2023-04-01T02:52:06.494Z,12.90
2023-04-01T02:54:36.765Z,12.90
2023-04-01T02:57:05.677Z,12.90
2023-04-01T02:59:34.899Z,12.90
2023-04-01T03:02:04.022Z,12.90
2023-04-01T03:04:32.998Z,12.90
2023-04-01T03:07:01.971Z,12.90
2023-04-01T03:09:31.134Z,12.90
2023-04-01T03:12:01.461Z,12.90
2023-04-01T03:14:30.968Z,12.90
2023-04-01T03:17:00.173Z,12.90
2023-04-01T03:19:29.299Z,12.90
2023-04-01T03:21:58.248Z,12.90
2023-04-01T03:24:27.258Z,12.90
2023-04-01T03:26:56.206Z,12.90
2023-04-01T03:29:26.621Z,12.90
2023-04-01T03:31:58.746Z,12.90
2023-04-01T03:34:28.011Z,12.90
2023-04-01T03:36:57.367Z,12.90
2023-04-01T03:39:26.494Z,12.90
2023-04-01T03:41:55.475Z,12.90
2023-04-01T03:44:26.174Z,12.90
2023-04-01T03:46:56.454Z,13.00
2023-04-01T03:49:25.653Z,12.90
2023-04-01T03:51:54.549Z,13.00
2023-04-01T03:54:24.030Z,13.00
2023-04-01T03:56:52.997Z,13.00
2023-04-01T03:59:22.761Z,13.00
2023-04-01T04:01:53.662Z,12.90
2023-04-01T04:04:22.637Z,13.00
2023-04-01T04:06:52.179Z,13.00
2023-04-01T04:09:23.748Z,13.00
2023-04-01T04:11:52.683Z,13.00
2023-04-01T04:14:21.997Z,13.00
2023-04-01T04:16:51.222Z,13.00
2023-04-01T04:19:22.083Z,13.00
2023-04-01T04:21:51.362Z,13.00
2023-04-01T04:24:20.695Z,13.00
2023-04-01T04:27:02.439Z,13.00
2023-04-01T04:29:32.807Z,13.00
2023-04-01T04:32:03.029Z,13.00
2023-04-01T04:34:33.637Z,13.00
2023-04-01T04:37:02.868Z,13.00
2023-04-01T04:39:36.122Z,13.00
2023-04-01T04:42:05.925Z,13.00
2023-04-01T04:44:35.569Z,13.00
2023-04-01T04:47:04.853Z,13.00
2023-04-01T04:49:35.424Z,13.00
2023-04-01T04:52:08.922Z,13.00
2023-04-01T04:54:38.097Z,13.00
2023-04-01T04:57:08.050Z,13.00
2023-04-01T04:59:43.908Z,13.00
2023-04-01T05:02:16.780Z,13.00
2023-04-01T05:04:47.209Z,13.00
2023-04-01T05:07:16.366Z,13.00
2023-04-01T05:09:46.767Z,13.00
2023-04-01T05:12:16.465Z,13.00
2023-04-01T05:15:12.309Z,13.00
2023-04-01T05:17:41.647Z,13.00
2023-04-01T05:20:16.359Z,13.00
2023-04-01T05:22:45.470Z,13.00
2023-04-01T05:25:14.582Z,13.00
2023-04-01T05:27:43.529Z,13.00
2023-04-01T05:30:13.845Z,13.00
2023-04-01T05:33:03.204Z,13.00
2023-04-01T05:35:33.988Z,13.00
2023-04-01T05:38:03.429Z,13.00
2023-04-01T05:40:33.240Z,13.00
2023-04-01T05:43:02.338Z,13.00
2023-04-01T05:45:31.628Z,13.00
2023-04-01T05:48:23.750Z,13.00
2023-04-01T05:50:54.124Z,13.00
2023-04-01T05:53:23.218Z,12.90
2023-04-01T05:55:52.364Z,12.90
2023-04-01T05:58:21.436Z,12.90
2023-04-01T06:01:02.390Z,12.90
2023-04-01T06:03:38.348Z,12.90
2023-04-01T06:06:16.928Z,12.90
2023-04-01T06:08:46.213Z,12.90
2023-04-01T06:11:25.125Z,12.90
2023-04-01T06:14:09.432Z,12.90
2023-04-01T06:16:51.360Z,12.90
2023-04-01T06:19:42.088Z,12.90
2023-04-01T06:22:40.703Z,12.90
2023-04-01T06:25:23.630Z,12.90
2023-04-01T06:28:20.964Z,12.90
2023-04-01T06:30:57.092Z,12.90
2023-04-01T06:33:46.946Z,12.90
2023-04-01T06:36:48.603Z,12.90
2023-04-01T06:39:50.871Z,12.90
2023-04-01T06:42:41.545Z,12.90
2023-04-01T06:45:36.690Z,12.90
2023-04-01T06:48:54.580Z,12.90
2023-04-01T06:51:52.644Z,12.90
2023-04-01T06:54:44.414Z,13.00
2023-04-01T06:57:39.894Z,13.00
2023-04-01T07:00:17.635Z,13.00
2023-04-01T07:02:54.777Z,13.10
2023-04-01T07:05:25.889Z,13.10
2023-04-01T07:07:58.396Z,13.10
2023-04-01T07:10:36.854Z,13.10
2023-04-01T07:13:16.101Z,13.10
2023-04-01T07:16:05.970Z,13.10
2023-04-01T07:18:44.887Z,13.10
2023-04-01T07:21:27.090Z,13.00
2023-04-01T07:24:03.413Z,13.00
2023-04-01T07:26:39.401Z,13.10
2023-04-01T07:29:14.927Z,13.10
2023-04-01T07:32:08.094Z,13.10
2023-04-01T07:34:46.409Z,13.10
2023-04-01T07:37:23.419Z,13.10
2023-04-01T07:40:00.290Z,13.10
2023-04-01T07:42:45.881Z,13.10
2023-04-01T07:45:25.021Z,13.10
2023-04-01T07:48:17.891Z,13.00
2023-04-01T07:50:55.124Z,13.00
2023-04-01T07:53:31.888Z,13.00
2023-04-01T07:56:07.140Z,13.00
2023-04-01T07:58:53.357Z,13.00
2023-04-01T08:01:50.953Z,13.00
2023-04-01T08:04:29.955Z,13.00
2023-04-01T08:07:07.598Z,13.00
2023-04-01T08:09:46.648Z,13.00
2023-04-01T08:12:56.306Z,13.00
2023-04-01T08:15:51.710Z,13.10
2023-04-01T08:18:50.980Z,13.10
2023-04-01T08:21:26.029Z,13.10
2023-04-01T08:23:59.601Z,13.10
2023-04-01T08:26:35.029Z,13.10
2023-04-01T08:29:09.182Z,13.10
2023-04-01T08:31:43.346Z,13.10
2023-04-01T08:34:19.269Z,13.10
2023-04-01T08:36:54.653Z,13.20
2023-04-01T08:39:31.142Z,13.10
2023-04-01T08:42:33.892Z,13.20
2023-04-01T08:45:46.693Z,13.20
2023-04-01T08:48:47.613Z,13.20
2023-04-01T08:51:46.447Z,13.30
2023-04-01T08:54:43.454Z,13.20
2023-04-01T08:57:23.665Z,13.30
2023-04-01T09:00:27.694Z,13.30
2023-04-01T09:03:43.837Z,13.30
2023-04-01T09:06:37.536Z,13.40
2023-04-01T09:09:38.955Z,13.40
2023-04-01T09:12:33.323Z,13.40
2023-04-01T09:15:32.384Z,13.40
2023-04-01T09:18:44.281Z,13.40
2023-04-01T09:21:33.997Z,13.50
2023-04-01T09:24:42.187Z,13.50
2023-04-01T09:27:20.320Z,13.50
2023-04-01T09:30:21.506Z,13.60
2023-04-01T09:33:18.977Z,13.70
2023-04-01T09:35:49.645Z,13.70
2023-04-01T09:38:24.272Z,13.80
2023-04-01T09:40:59.845Z,13.80
2023-04-01T09:43:58.888Z,13.90
2023-04-01T09:46:39.886Z,14.00
2023-04-01T09:49:26.162Z,14.00
2023-04-01T09:52:09.508Z,14.00
2023-04-01T09:55:00.299Z,14.00
2023-04-01T09:57:55.861Z,14.00
2023-04-01T10:01:29.894Z,14.10
2023-04-01T10:04:42.764Z,14.10
2023-04-01T10:07:55.567Z,14.20
2023-04-01T10:10:49.213Z,14.30
2023-04-01T10:13:54.947Z,14.30
2023-04-01T10:17:10.985Z,14.40
2023-04-01T10:20:12.282Z,14.40
2023-04-01T10:23:04.492Z,14.50
2023-04-01T10:25:59.064Z,14.50
2023-04-01T10:29:03.990Z,14.60
2023-04-01T10:32:09.854Z,14.50
2023-04-01T10:35:08.092Z,14.50
2023-04-01T10:38:20.612Z,14.50
2023-04-01T10:41:11.410Z,14.50
2023-04-01T10:44:33.585Z,14.40
2023-04-01T10:47:45.456Z,14.40
2023-04-01T10:50:34.988Z,14.40
2023-04-01T10:53:59.434Z,14.40
2023-04-01T10:56:41.246Z,14.40
2023-04-01T11:00:15.485Z,14.40
2023-04-01T11:03:47.290Z,14.40
2023-04-01T11:07:15.056Z,14.40
2023-04-01T11:10:24.636Z,14.40
2023-04-01T11:13:21.249Z,14.40
2023-04-01T11:16:11.713Z,14.40
2023-04-01T11:19:20.119Z,14.40
2023-04-01T11:22:22.059Z,14.40
2023-04-01T11:25:18.040Z,14.40
2023-04-01T11:29:07.761Z,14.40
2023-04-01T11:31:56.339Z,14.40
2023-04-01T11:34:44.995Z,14.40
2023-04-01T11:37:26.612Z,14.40
2023-04-01T11:40:25.811Z,14.40
2023-04-01T11:43:39.632Z,14.40
2023-04-01T11:46:33.593Z,14.40
2023-04-01T11:49:14.730Z,14.20
2023-04-01T11:52:16.009Z,14.10
2023-04-01T11:54:59.529Z,14.10
2023-04-01T11:57:48.395Z,14.10
2023-04-01T12:00:28.092Z,14.10
2023-04-01T12:03:12.841Z,14.20
2023-04-01T12:05:49.314Z,14.20
2023-04-01T12:08:33.451Z,14.30
2023-04-01T12:11:11.392Z,14.30
2023-04-01T12:13:47.080Z,14.30
2023-04-01T12:16:48.121Z,14.40
2023-04-01T12:19:26.422Z,14.40
2023-04-01T12:22:14.595Z,14.40
2023-04-01T12:24:49.737Z,14.40
2023-04-01T12:27:55.755Z,14.40
2023-04-01T12:30:37.616Z,14.40
2023-04-01T12:33:39.410Z,14.40
2023-04-01T12:36:21.166Z,14.40
2023-04-01T12:39:05.881Z,14.40
2023-04-01T12:41:48.110Z,14.40
2023-04-01T12:44:38.388Z,14.40
2023-04-01T12:47:21.963Z,14.40
2023-04-01T12:50:27.129Z,14.40
2023-04-01T12:53:13.825Z,14.50
2023-04-01T12:55:44.231Z,14.60
2023-04-01T12:58:56.047Z,14.60
2023-04-01T13:01:37.892Z,14.60
2023-04-01T13:04:37.686Z,14.60
2023-04-01T13:07:36.658Z,14.70
2023-04-01T13:10:15.645Z,14.70
2023-04-01T13:13:02.248Z,14.60
2023-04-01T13:15:43.053Z,14.60
2023-04-01T13:18:24.062Z,14.50
2023-04-01T13:21:06.968Z,14.50
2023-04-01T13:23:47.123Z,14.40
2023-04-01T13:26:24.725Z,14.40
2023-04-01T13:28:58.674Z,14.40
2023-04-01T13:31:51.328Z,14.40
2023-04-01T13:34:40.777Z,14.40
2023-04-01T13:37:28.264Z,14.40
2023-04-01T13:40:16.170Z,14.40
2023-04-01T13:42:51.696Z,14.40
2023-04-01T13:45:25.668Z,14.40
2023-04-01T13:48:32.222Z,14.50
2023-04-01T13:51:35.369Z,14.50
2023-04-01T13:54:37.896Z,14.50
2023-04-01T13:57:31.555Z,14.60
2023-04-01T14:00:24.902Z,14.50
2023-04-01T14:03:14.450Z,14.50
2023-04-01T14:06:01.272Z,14.50
2023-04-01T14:08:45.297Z,14.50
2023-04-01T14:11:19.353Z,14.60
2023-04-01T14:14:01.566Z,14.50
2023-04-01T14:17:01.943Z,14.50
2023-04-01T14:19:48.748Z,14.50
2023-04-01T14:22:32.217Z,14.40
2023-04-01T14:25:18.861Z,14.40
2023-04-01T14:27:56.103Z,14.40
2023-04-01T14:30:49.290Z,14.30
2023-04-01T14:33:27.628Z,14.30
2023-04-01T14:36:28.118Z,14.40
2023-04-01T14:39:10.938Z,14.40
2023-04-01T14:41:49.977Z,14.40
2023-04-01T14:44:30.134Z,14.40
2023-04-01T14:47:27.009Z,14.40
2023-04-01T14:50:05.432Z,14.50
2023-04-01T14:52:37.933Z,14.50
2023-04-01T14:55:23.015Z,14.50
2023-04-01T14:58:13.551Z,14.50
2023-04-01T15:01:08.111Z,14.50
2023-04-01T15:03:49.132Z,14.50
2023-04-01T15:06:40.860Z,14.50
2023-04-01T15:09:20.586Z,14.50
2023-04-01T15:12:06.492Z,14.50
2023-04-01T15:14:58.853Z,14.50
2023-04-01T15:17:48.363Z,14.50
2023-04-01T15:20:54.041Z,14.50
2023-04-01T15:23:33.643Z,14.50
2023-04-01T15:26:23.703Z,14.40
2023-04-01T15:29:08.575Z,14.40
2023-04-01T15:31:44.272Z,14.50
2023-04-01T15:34:28.232Z,14.40
2023-04-01T15:37:02.427Z,14.40
2023-04-01T15:39:50.424Z,14.40
2023-04-01T15:42:42.972Z,14.40
2023-04-01T15:45:24.485Z,14.40
2023-04-01T15:48:03.252Z,14.40
2023-04-01T15:51:13.485Z,14.40
2023-04-01T15:54:14.957Z,14.40
2023-04-01T15:56:55.905Z,14.40
2023-04-01T15:59:41.965Z,14.30
2023-04-01T16:02:20.747Z,14.30
2023-04-01T16:04:56.539Z,14.30
2023-04-01T16:07:44.623Z,14.30
2023-04-01T16:10:26.497Z,14.30
2023-04-01T16:13:06.126Z,14.30
2023-04-01T16:15:42.307Z,14.30
2023-04-01T16:18:27.485Z,14.30
2023-04-01T16:21:01.099Z,14.30
2023-04-01T16:23:38.248Z,14.30
2023-04-01T16:26:11.943Z,14.30
2023-04-01T16:28:49.763Z,14.30
2023-04-01T16:31:32.714Z,14.30
2023-04-01T16:34:10.660Z,14.30
2023-04-01T16:36:45.336Z,14.30
2023-04-01T16:39:30.802Z,14.30
2023-04-01T16:42:18.517Z,14.30
2023-04-01T16:44:56.308Z,14.30
2023-04-01T16:47:32.636Z,14.30
2023-04-01T16:50:15.522Z,14.30
2023-04-01T16:53:00.973Z,14.30
2023-04-01T16:55:38.231Z,14.30
2023-04-01T16:58:11.403Z,14.30
2023-04-01T17:00:43.433Z,14.30
2023-04-01T17:03:18.582Z,14.30
2023-04-01T17:05:59.726Z,14.20
2023-04-01T17:08:39.983Z,14.30
2023-04-01T17:11:17.304Z,14.20
2023-04-01T17:13:55.661Z,14.20
2023-04-01T17:16:43.150Z,14.20
2023-04-01T17:19:21.993Z,14.20
2023-04-01T17:22:02.888Z,14.20
2023-04-01T17:24:44.499Z,14.20
2023-04-01T17:27:25.476Z,14.10
2023-04-01T17:30:28.370Z,14.10
2023-04-01T17:33:12.358Z,14.00
2023-04-01T17:35:44.980Z,14.00
2023-04-01T17:38:24.995Z,14.00
2023-04-01T17:41:05.518Z,14.00
2023-04-01T17:43:45.590Z,14.00
2023-04-01T17:46:31.477Z,13.90
2023-04-01T17:49:12.853Z,13.90
2023-04-01T17:51:52.134Z,13.90
2023-04-01T17:54:31.793Z,13.90
2023-04-01T17:57:35.568Z,13.80
2023-04-01T18:00:16.265Z,13.80
2023-04-01T18:02:55.652Z,13.80
2023-04-01T18:05:32.936Z,13.80
2023-04-01T18:08:15.271Z,13.80
2023-04-01T18:10:58.887Z,13.80
2023-04-01T18:13:48.892Z,13.80
2023-04-01T18:16:31.982Z,13.80
2023-04-01T18:19:08.630Z,13.70
2023-04-01T18:21:45.045Z,13.70
2023-04-01T18:24:23.226Z,13.70
2023-04-01T18:27:04.941Z,13.70
2023-04-01T18:29:42.644Z,13.70
2023-04-01T18:32:25.101Z,13.60
2023-04-01T18:35:01.720Z,13.60
2023-04-01T18:37:35.988Z,13.60
2023-04-01T18:40:17.851Z,13.60
2023-04-01T18:43:00.694Z,13.60
2023-04-01T18:45:34.567Z,13.60
2023-04-01T18:48:14.626Z,13.60
2023-04-01T18:50:49.413Z,13.60
2023-04-01T18:53:25.989Z,13.60
2023-04-01T18:55:57.736Z,13.50
2023-04-01T18:58:35.194Z,13.60
2023-04-01T19:01:13.190Z,13.60
2023-04-01T19:03:50.563Z,13.50
2023-04-01T19:06:25.216Z,13.50
2023-04-01T19:08:55.470Z,13.50
2023-04-01T19:11:32.826Z,13.50
2023-04-01T19:14:16.198Z,13.50
2023-04-01T19:16:55.625Z,13.50
2023-04-01T19:19:39.659Z,13.50
2023-04-01T19:22:23.726Z,13.50
2023-04-01T19:25:24.823Z,13.50
2023-04-01T19:27:55.596Z,13.40
2023-04-01T19:30:37.853Z,13.50
2023-04-01T19:33:20.953Z,13.40
2023-04-01T19:35:59.634Z,13.50
2023-04-01T19:38:35.978Z,13.40
2023-04-01T19:41:17.779Z,13.40
2023-04-01T19:43:56.537Z,13.40
2023-04-01T19:46:33.288Z,13.40
2023-04-01T19:49:23.737Z,13.40
2023-04-01T19:52:04.512Z,13.40
2023-04-01T19:54:42.790Z,13.40
2023-04-01T19:57:20.633Z,13.40
2023-04-01T19:59:53.130Z,13.40
2023-04-01T20:02:40.274Z,13.40
2023-04-01T20:05:28.617Z,13.40
2023-04-01T20:08:02.320Z,13.40
2023-04-01T20:10:40.797Z,13.40
2023-04-01T20:13:21.372Z,13.30
2023-04-01T20:16:02.196Z,13.40
2023-04-01T20:18:41.198Z,13.40
2023-04-01T20:25:06.995Z,13.40
2023-04-01T20:27:41.943Z,13.40
2023-04-01T20:30:45.567Z,13.30
2023-04-01T20:33:38.231Z,13.40
2023-04-01T20:36:17.895Z,13.40
2023-04-01T20:39:14.104Z,13.30
2023-04-01T20:41:57.972Z,13.40
2023-04-01T20:44:38.107Z,13.30
2023-04-01T20:47:19.063Z,13.30
2023-04-01T20:50:01.375Z,13.30
2023-04-01T20:52:42.877Z,13.30
2023-04-01T20:55:47.470Z,13.40
2023-04-01T20:58:27.512Z,13.30
2023-04-01T21:01:04.892Z,13.30
2023-04-01T21:03:44.970Z,13.30
2023-04-01T21:06:29.847Z,13.30
2023-04-01T21:09:15.794Z,13.30
2023-04-01T21:11:53.001Z,13.30
2023-04-01T21:14:52.354Z,13.30
2023-04-01T21:17:35.364Z,13.30
2023-04-01T21:20:39.200Z,13.30
2023-04-01T21:23:25.457Z,13.30
2023-04-01T21:26:12.206Z,13.30
2023-04-01T21:28:56.358Z,13.30
2023-04-01T21:31:39.079Z,13.30
2023-04-01T21:34:46.042Z,13.20
2023-04-01T21:37:35.608Z,13.20
2023-04-01T21:40:37.952Z,13.20
2023-04-01T21:43:19.950Z,13.20
2023-04-01T21:46:13.451Z,13.20
2023-04-01T21:49:13.818Z,13.20
2023-04-01T21:52:12.584Z,13.20
2023-04-01T21:54:57.749Z,13.20
2023-04-01T21:57:57.019Z,13.20
2023-04-01T22:00:33.842Z,13.20
2023-04-01T22:03:30.873Z,13.20
2023-04-01T22:06:09.973Z,13.20
2023-04-01T22:08:50.067Z,13.20
2023-04-01T22:11:33.433Z,13.20
2023-04-01T22:14:08.432Z,13.20
2023-04-01T22:16:45.743Z,13.20
2023-04-01T22:19:23.125Z,13.20
2023-04-01T22:22:03.458Z,13.20
2023-04-01T22:24:44.473Z,13.20
2023-04-01T22:27:22.822Z,13.20
2023-04-01T22:30:02.517Z,13.20
2023-04-01T22:32:36.592Z,13.20
2023-04-01T22:35:12.925Z,13.30
2023-04-01T22:37:51.537Z,13.20
2023-04-01T22:40:27.612Z,13.20
2023-04-01T22:43:01.854Z,13.20
2023-04-01T22:46:01.941Z,13.20
2023-04-01T22:48:39.356Z,13.20
2023-04-01T22:51:17.616Z,13.20
2023-04-01T22:53:59.592Z,13.20
2023-04-01T22:56:35.203Z,13.20
2023-04-01T22:59:12.575Z,13.20
2023-04-01T23:01:47.059Z,13.20
2023-04-01T23:04:23.801Z,13.20
2023-04-01T23:06:57.721Z,13.20
2023-04-01T23:09:29.541Z,13.20
2023-04-01T23:12:03.776Z,13.20
2023-04-01T23:14:51.923Z,13.20
2023-04-01T23:17:44.621Z,13.20
2023-04-01T23:20:27.609Z,13.20
2023-04-01T23:23:12.908Z,13.20
2023-04-01T23:25:49.461Z,13.20
2023-04-01T23:28:48.717Z,13.10
2023-04-01T23:31:34.079Z,13.10
2023-04-01T23:34:05.608Z,13.10
2023-04-01T23:36:41.166Z,13.10
2023-04-01T23:39:23.831Z,13.10
2023-04-01T23:41:55.049Z,13.10
2023-04-01T23:44:27.291Z,13.10
2023-04-01T23:46:57.518Z,13.00
2023-04-01T23:49:36.120Z,13.00
2023-04-01T23:52:15.700Z,13.00
2023-04-01T23:54:49.292Z,13.00
2023-04-01T23:57:24.330Z,13.00
